createdAt,value
2022-10-10T00:00:24.820Z,6.45
2022-10-10T00:03:11.193Z,4.97
2022-10-10T00:05:56.401Z,5.30
2022-10-10T00:08:42.665Z,4.90
2022-10-10T00:11:28.526Z,5.35
2022-10-10T00:14:13.537Z,5.22
2022-10-10T00:16:58.961Z,4.05
2022-10-10T00:19:44.241Z,4.88
2022-10-10T00:22:29.501Z,5.28
2022-10-10T00:25:14.936Z,4.80
2022-10-10T00:28:05.122Z,4.10
2022-10-10T00:30:50.529Z,5.32
2022-10-10T00:33:36.432Z,4.45
2022-10-10T00:36:21.684Z,5.30
2022-10-10T00:39:07.260Z,4.63
2022-10-10T00:41:52.591Z,4.95
2022-10-10T00:44:40.293Z,4.88
2022-10-10T00:47:25.576Z,4.97
2022-10-10T00:50:11.089Z,4.65
2022-10-10T00:52:57.804Z,4.75
2022-10-10T00:55:44.212Z,5.65
2022-10-10T00:58:30.336Z,4.85
2022-10-10T01:01:16.475Z,5.03
2022-10-10T01:04:03.067Z,5.97
2022-10-10T01:06:48.048Z,5.72
2022-10-10T01:09:35.738Z,5.00
2022-10-10T01:12:40.625Z,4.32
2022-10-10T01:15:56.421Z,5.90
2022-10-10T01:18:59.816Z,4.55
2022-10-10T01:22:06.241Z,4.13
2022-10-10T01:25:25.350Z,4.80
2022-10-10T01:28:31.883Z,4.22
2022-10-10T01:31:22.517Z,5.45
2022-10-10T01:34:35.949Z,4.07
2022-10-10T01:37:32.488Z,6.00
2022-10-10T01:40:29.937Z,4.05
2022-10-10T01:43:16.773Z,5.07
2022-10-10T01:46:14.387Z,5.82
2022-10-10T01:49:01.929Z,4.10
2022-10-10T01:52:04.022Z,5.75
2022-10-10T01:54:49.300Z,5.32
2022-10-10T01:57:49.681Z,5.13
2022-10-10T02:00:46.318Z,4.53
2022-10-10T02:03:37.895Z,5.45
2022-10-10T02:06:45.991Z,4.53
2022-10-10T02:09:38.400Z,4.63
2022-10-10T02:12:26.522Z,6.60
2022-10-10T02:15:18.532Z,4.40
2022-10-10T02:18:06.164Z,3.70
2022-10-10T02:20:52.933Z,4.75
2022-10-10T02:23:40.521Z,5.55
2022-10-10T02:26:28.269Z,5.47
2022-10-10T02:29:19.849Z,4.85
2022-10-10T02:32:09.547Z,6.45
2022-10-10T02:34:57.884Z,4.93
2022-10-10T02:37:44.655Z,6.00
2022-10-10T02:40:32.752Z,5.72
2022-10-10T02:43:19.732Z,5.78
2022-10-10T02:46:09.152Z,4.75
2022-10-10T02:48:54.646Z,4.55
2022-10-10T02:51:40.287Z,4.60
2022-10-10T02:54:25.898Z,4.00
2022-10-10T02:57:11.865Z,4.60
2022-10-10T02:59:57.379Z,5.30
2022-10-10T03:02:43.570Z,4.85
2022-10-10T03:05:29.057Z,4.20
2022-10-10T03:08:14.209Z,4.75
2022-10-10T03:11:01.588Z,4.03
2022-10-10T03:13:46.973Z,4.57
2022-10-10T03:16:32.580Z,4.60
2022-10-10T03:19:17.958Z,4.50
2022-10-10T03:22:03.976Z,5.00
2022-10-10T03:24:49.255Z,4.25
2022-10-10T03:27:34.928Z,4.72
2022-10-10T03:30:20.298Z,4.55
2022-10-10T03:33:06.376Z,5.15
2022-10-10T03:35:51.756Z,4.82
2022-10-10T03:38:38.792Z,5.05
2022-10-10T03:41:23.979Z,4.68
2022-10-10T03:44:09.545Z,4.80
2022-10-10T03:46:54.975Z,4.22
2022-10-10T03:49:40.648Z,4.35
2022-10-10T03:52:25.673Z,4.60
2022-10-10T03:55:11.066Z,5.30
2022-10-10T03:57:56.635Z,4.85
2022-10-10T04:00:42.181Z,4.30
2022-10-10T04:03:27.573Z,4.80
2022-10-10T04:06:13.174Z,5.07
2022-10-10T04:08:58.397Z,5.30
2022-10-10T04:11:44.012Z,4.35
2022-10-10T04:14:29.185Z,5.05
2022-10-10T04:17:14.747Z,6.30
2022-10-10T04:19:59.996Z,6.00
2022-10-10T04:22:45.923Z,5.82
2022-10-10T04:25:31.275Z,5.68
2022-10-10T04:28:17.367Z,6.20
2022-10-10T04:31:02.728Z,6.15
2022-10-10T04:33:48.021Z,5.18
2022-10-10T04:36:33.610Z,7.25
2022-10-10T04:39:18.922Z,6.60
2022-10-10T04:42:04.810Z,5.65
2022-10-10T04:44:50.568Z,6.63
2022-10-10T04:47:35.721Z,5.82
2022-10-10T04:50:22.542Z,6.07
2022-10-10T04:53:07.665Z,5.65
2022-10-10T04:55:53.744Z,6.80
2022-10-10T04:58:39.256Z,5.05
2022-10-10T05:01:24.743Z,7.03
2022-10-10T05:04:10.142Z,5.35
2022-10-10T05:06:55.580Z,5.40
2022-10-10T05:09:40.698Z,4.70
2022-10-10T05:12:26.529Z,5.82
2022-10-10T05:15:11.590Z,5.93
2022-10-10T05:17:57.180Z,5.60
2022-10-10T05:20:43.891Z,5.15
2022-10-10T05:23:29.565Z,6.22
2022-10-10T05:26:15.621Z,5.53
2022-10-10T05:29:01.703Z,5.35
2022-10-10T05:31:47.051Z,5.10
2022-10-10T05:34:32.603Z,7.05
2022-10-10T05:37:18.214Z,5.75
2022-10-10T05:40:04.696Z,5.85
2022-10-10T05:42:50.075Z,5.50
2022-10-10T05:45:36.090Z,6.25
2022-10-10T05:48:22.811Z,4.72
2022-10-10T05:51:08.098Z,4.80
2022-10-10T05:53:53.422Z,5.97
2022-10-10T05:56:39.406Z,6.85
2022-10-10T05:59:24.965Z,6.55
2022-10-10T06:02:13.366Z,7.03
2022-10-10T06:04:58.916Z,5.65
2022-10-10T06:08:04.682Z,5.10
2022-10-10T06:10:50.284Z,6.78
2022-10-10T06:13:35.788Z,5.72
2022-10-10T06:16:26.075Z,6.43
2022-10-10T06:19:14.949Z,6.00
2022-10-10T06:22:00.546Z,5.57
2022-10-10T06:24:50.816Z,5.43
2022-10-10T06:27:37.961Z,6.80
2022-10-10T06:30:23.765Z,6.00
2022-10-10T06:33:10.161Z,6.25
2022-10-10T06:35:55.791Z,7.65
2022-10-10T06:38:44.156Z,5.28
2022-10-10T06:41:30.108Z,6.47
2022-10-10T06:44:17.440Z,7.53
2022-10-10T06:47:03.051Z,6.10
2022-10-10T06:49:48.614Z,6.40
2022-10-10T06:52:34.435Z,6.38
2022-10-10T06:55:19.779Z,5.82
2022-10-10T06:58:05.421Z,5.05
2022-10-10T07:00:55.126Z,7.03
2022-10-10T07:03:40.848Z,4.80
2022-10-10T07:06:26.285Z,6.20
2022-10-10T07:09:12.309Z,5.68
2022-10-10T07:11:57.572Z,6.28
2022-10-10T07:14:43.119Z,5.35
2022-10-10T07:17:28.200Z,5.80
2022-10-10T07:20:13.669Z,4.97
2022-10-10T07:22:59.013Z,5.95
2022-10-10T07:25:44.891Z,6.07
2022-10-10T07:28:30.307Z,5.40
2022-10-10T07:31:16.041Z,5.30
2022-10-10T07:34:01.630Z,4.53
2022-10-10T07:36:50.382Z,4.95
2022-10-10T07:39:35.800Z,4.70
2022-10-10T07:42:21.751Z,4.15
2022-10-10T07:45:07.305Z,5.70
2022-10-10T07:47:53.602Z,6.70
2022-10-10T07:50:43.567Z,6.55
2022-10-10T07:53:29.152Z,4.88
2022-10-10T07:56:14.580Z,5.38
2022-10-10T07:59:01.634Z,4.80
2022-10-10T08:01:47.237Z,5.13
2022-10-10T08:04:33.368Z,4.05
2022-10-10T08:07:19.586Z,4.68
2022-10-10T08:10:06.621Z,4.60
2022-10-10T08:12:51.829Z,4.55
2022-10-10T08:15:39.728Z,4.40
2022-10-10T08:18:25.127Z,4.28
2022-10-10T08:21:15.653Z,3.67
2022-10-10T08:24:01.222Z,4.88
2022-10-10T08:26:46.789Z,4.85
2022-10-10T08:29:33.353Z,5.45
2022-10-10T08:32:18.772Z,5.35
2022-10-10T08:35:04.317Z,4.57
2022-10-10T08:37:49.845Z,5.15
2022-10-10T08:40:44.683Z,4.32
2022-10-10T08:43:38.179Z,4.28
2022-10-10T08:46:39.631Z,5.35
2022-10-10T08:49:52.537Z,4.20
2022-10-10T08:52:57.429Z,3.35
2022-10-10T08:55:45.921Z,4.43
2022-10-10T08:58:37.938Z,4.50
2022-10-10T09:01:32.359Z,4.78
2022-10-10T09:04:19.519Z,4.28
2022-10-10T09:07:27.016Z,3.55
2022-10-10T09:10:18.336Z,4.43
2022-10-10T09:13:16.045Z,4.32
2022-10-10T09:16:22.305Z,4.22
2022-10-10T09:19:42.475Z,5.07
2022-10-10T09:22:33.711Z,4.53
2022-10-10T09:25:43.308Z,3.93
2022-10-10T09:28:46.957Z,4.68
2022-10-10T09:31:38.323Z,4.82
2022-10-10T09:34:45.289Z,5.25
2022-10-10T09:37:46.913Z,4.88
2022-10-10T09:40:46.546Z,4.68
2022-10-10T09:43:33.903Z,5.40
2022-10-10T09:46:19.250Z,5.80
2022-10-10T09:49:05.711Z,5.45
2022-10-10T09:51:51.104Z,5.63
2022-10-10T09:54:36.400Z,4.70
2022-10-10T09:57:26.584Z,5.13
2022-10-10T10:00:36.431Z,4.88
2022-10-10T10:03:22.943Z,4.63
2022-10-10T10:06:15.530Z,5.93
2022-10-10T10:09:02.801Z,6.18
2022-10-10T10:11:56.726Z,4.43
2022-10-10T10:14:43.229Z,5.35
2022-10-10T10:17:28.997Z,6.35
2022-10-10T10:20:33.650Z,5.53
2022-10-10T10:23:33.470Z,5.05
2022-10-10T10:26:46.985Z,4.65
2022-10-10T10:29:33.951Z,6.05
2022-10-10T10:32:45.025Z,5.13
2022-10-10T10:35:46.757Z,5.55
2022-10-10T10:39:09.078Z,4.93
2022-10-10T10:42:09.201Z,5.43
2022-10-10T10:45:18.990Z,4.38
2022-10-10T10:48:20.241Z,3.90
2022-10-10T10:51:18.962Z,6.85
2022-10-10T10:54:30.486Z,6.43
2022-10-10T10:58:00.129Z,5.55
2022-10-10T11:01:24.213Z,5.40
2022-10-10T11:05:17.849Z,5.13
2022-10-10T11:08:22.852Z,6.50
2022-10-10T11:11:32.008Z,7.53
2022-10-10T11:14:34.824Z,5.93
2022-10-10T11:17:37.164Z,6.07
2022-10-10T11:20:29.610Z,6.95
2022-10-10T11:23:30.511Z,8.38
2022-10-10T11:26:40.049Z,6.18
2022-10-10T11:29:30.053Z,5.35
2022-10-10T11:35:25.857Z,5.88
2022-10-10T11:38:40.103Z,6.25
2022-10-10T11:41:32.351Z,5.03
2022-10-10T11:44:37.746Z,4.72
2022-10-10T11:47:35.663Z,5.68
2022-10-10T11:50:28.761Z,5.22
2022-10-10T11:53:32.133Z,5.47
2022-10-10T11:56:30.733Z,6.00
2022-10-10T11:59:25.763Z,5.70
2022-10-10T12:02:23.260Z,7.90
2022-10-10T12:05:27.076Z,5.97
2022-10-10T12:08:21.589Z,5.85
2022-10-10T12:11:33.039Z,7.13
2022-10-10T12:14:21.297Z,7.57
2022-10-10T12:17:20.213Z,4.93
2022-10-10T12:20:14.955Z,4.82
2022-10-10T12:23:27.045Z,3.35
2022-10-10T12:26:17.704Z,3.25
2022-10-10T12:29:09.699Z,2.22
2022-10-10T12:32:17.657Z,3.33
2022-10-10T12:35:02.870Z,2.33
2022-10-10T12:38:13.789Z,3.03
2022-10-10T12:41:11.814Z,2.60
2022-10-10T12:44:21.005Z,2.95
2022-10-10T12:47:15.239Z,2.55
2022-10-10T12:50:17.084Z,3.13
2022-10-10T12:53:06.294Z,3.60
2022-10-10T12:55:58.116Z,4.70
2022-10-10T12:58:47.961Z,5.00
2022-10-10T13:01:38.380Z,3.90
2022-10-10T13:04:25.472Z,4.25
2022-10-10T13:07:16.706Z,5.28
2022-10-10T13:10:24.204Z,4.20
2022-10-10T13:13:16.693Z,5.70
2022-10-10T13:16:15.049Z,4.70
2022-10-10T13:19:00.837Z,5.13
2022-10-10T13:21:46.503Z,5.82
2022-10-10T13:24:32.329Z,5.20
2022-10-10T13:27:24.737Z,5.05
2022-10-10T13:30:22.435Z,7.63
2022-10-10T13:33:16.158Z,8.68
2022-10-10T13:36:07.787Z,10.25
2022-10-10T13:38:53.353Z,7.80
2022-10-10T13:41:38.952Z,11.55
2022-10-10T13:44:33.086Z,8.73
2022-10-10T13:47:46.638Z,9.98
2022-10-10T13:50:42.307Z,12.38
2022-10-10T13:53:27.602Z,9.77
2022-10-10T13:56:29.338Z,6.63
2022-10-10T13:59:24.717Z,10.90
2022-10-10T14:02:16.920Z,12.75
2022-10-10T14:05:08.009Z,11.48
2022-10-10T14:07:54.320Z,11.05
2022-10-10T14:10:39.929Z,11.55
2022-10-10T14:13:25.905Z,11.93
2022-10-10T14:16:17.807Z,14.15
2022-10-10T14:19:03.166Z,10.60
2022-10-10T14:21:48.641Z,10.07
2022-10-10T14:24:34.358Z,12.75
2022-10-10T14:27:20.219Z,14.35
2022-10-10T14:30:06.267Z,10.85
2022-10-10T14:32:51.974Z,10.95
2022-10-10T14:35:37.396Z,12.93
2022-10-10T14:38:23.757Z,10.02
2022-10-10T14:41:12.896Z,11.10
2022-10-10T14:43:58.049Z,10.65
2022-10-10T14:46:43.544Z,11.40
2022-10-10T14:49:29.261Z,7.15
2022-10-10T14:52:15.635Z,8.75
2022-10-10T14:55:01.234Z,8.43
2022-10-10T14:57:46.501Z,10.27
2022-10-10T15:00:32.155Z,9.98
2022-10-10T15:03:17.681Z,6.30
2022-10-10T15:06:03.302Z,13.68
2022-10-10T15:08:48.753Z,7.80
2022-10-10T15:11:34.412Z,8.27
2022-10-10T15:14:19.688Z,8.80
2022-10-10T15:17:05.300Z,7.70
2022-10-10T15:19:50.673Z,8.57
2022-10-10T15:22:37.157Z,7.45
2022-10-10T15:25:22.515Z,6.13
2022-10-10T15:28:08.922Z,7.03
2022-10-10T15:30:54.644Z,9.30
2022-10-10T15:33:40.542Z,5.72
2022-10-10T15:36:26.288Z,9.05
2022-10-10T15:39:12.322Z,9.38
2022-10-10T15:41:57.845Z,5.30
2022-10-10T15:44:47.607Z,8.35
2022-10-10T15:47:33.301Z,9.98
2022-10-10T15:50:18.719Z,4.80
2022-10-10T15:53:04.099Z,8.88
2022-10-10T15:55:49.736Z,8.30
2022-10-10T15:58:35.531Z,10.75
2022-10-10T16:01:21.315Z,8.65
2022-10-10T16:04:06.711Z,10.02
2022-10-10T16:07:19.291Z,11.25
2022-10-10T16:09:59.261Z,6.65
2022-10-10T16:12:44.790Z,8.55
2022-10-10T16:15:30.283Z,7.18
2022-10-10T16:18:15.836Z,8.05
2022-10-10T16:21:04.193Z,9.32
2022-10-10T16:23:55.665Z,7.65
2022-10-10T16:26:43.216Z,6.90
2022-10-10T16:29:28.947Z,6.47
2022-10-10T16:32:14.027Z,8.65
2022-10-10T16:34:59.877Z,6.22
2022-10-10T16:37:45.109Z,6.57
2022-10-10T16:40:30.472Z,8.93
2022-10-10T16:43:17.350Z,9.90
2022-10-10T16:46:07.190Z,6.93
2022-10-10T16:48:53.097Z,8.32
2022-10-10T16:51:38.611Z,7.88
2022-10-10T16:54:23.869Z,7.50
2022-10-10T16:57:09.465Z,8.50
2022-10-10T16:59:54.512Z,5.32
2022-10-10T17:02:42.239Z,4.47
2022-10-10T17:05:27.725Z,6.05
2022-10-10T17:08:13.103Z,4.93
2022-10-10T17:10:59.551Z,4.93
2022-10-10T17:13:45.462Z,6.85
2022-10-10T17:19:36.510Z,8.18
2022-10-10T17:22:22.022Z,5.50
2022-10-10T17:25:08.028Z,6.22
2022-10-10T17:27:53.574Z,5.88
2022-10-10T17:30:47.610Z,11.50
2022-10-10T17:33:33.002Z,9.27
2022-10-10T17:36:22.315Z,10.50
2022-10-10T17:39:07.704Z,8.07
2022-10-10T17:41:53.081Z,8.02
2022-10-10T17:44:44.784Z,11.82
2022-10-10T17:47:34.580Z,10.02
2022-10-10T17:50:19.836Z,7.10
2022-10-10T17:53:05.925Z,12.10
2022-10-10T17:55:52.166Z,12.20
2022-10-10T17:58:37.716Z,7.70
2022-10-10T18:01:23.250Z,12.63
2022-10-10T18:04:08.892Z,9.25
2022-10-10T18:06:54.410Z,7.65
2022-10-10T18:09:40.051Z,8.05
2022-10-10T18:12:25.258Z,7.53
2022-10-10T18:15:11.226Z,7.43
2022-10-10T18:17:56.775Z,7.40
2022-10-10T18:20:42.408Z,9.85
2022-10-10T18:23:28.133Z,8.38
2022-10-10T18:26:19.466Z,11.00
2022-10-10T18:29:04.840Z,9.55
2022-10-10T18:31:50.589Z,8.50
2022-10-10T18:34:35.609Z,9.35
2022-10-10T18:37:21.326Z,7.57
2022-10-10T18:40:07.120Z,6.88
2022-10-10T18:42:52.531Z,9.48
2022-10-10T18:45:37.860Z,9.52
2022-10-10T18:48:23.305Z,6.93
2022-10-10T18:51:14.972Z,9.18
2022-10-10T18:54:04.147Z,6.18
2022-10-10T18:56:49.177Z,9.00
2022-10-10T18:59:34.992Z,10.35
2022-10-10T19:02:20.051Z,9.75
2022-10-10T19:05:05.753Z,10.13
2022-10-10T19:07:50.968Z,6.88
2022-10-10T19:10:36.582Z,12.30
2022-10-10T19:13:21.998Z,13.25
2022-10-10T19:16:08.146Z,9.68
2022-10-10T19:18:58.093Z,10.52
2022-10-10T19:21:46.245Z,10.65
2022-10-10T19:24:32.069Z,8.38
2022-10-10T19:27:17.269Z,9.85
2022-10-10T19:30:02.827Z,6.68
2022-10-10T19:32:48.393Z,10.38
2022-10-10T19:35:49.771Z,13.48
2022-10-10T19:38:39.855Z,12.23
2022-10-10T19:41:25.067Z,9.45
2022-10-10T19:44:10.702Z,13.10
2022-10-10T19:46:56.225Z,10.02
2022-10-10T19:49:41.447Z,9.13
2022-10-10T19:52:26.834Z,5.68
2022-10-10T19:55:12.495Z,6.93
2022-10-10T19:57:57.948Z,5.65
2022-10-10T20:00:43.740Z,5.90
2022-10-10T20:03:29.001Z,10.85
2022-10-10T20:06:16.864Z,7.15
2022-10-10T20:09:03.550Z,6.93
2022-10-10T20:11:50.517Z,7.22
2022-10-10T20:14:36.132Z,6.93
2022-10-10T20:17:21.775Z,7.60
2022-10-10T20:20:07.712Z,6.38
2022-10-10T20:22:53.627Z,6.80
2022-10-10T20:25:44.107Z,8.50
2022-10-10T20:28:29.972Z,7.10
2022-10-10T20:31:20.124Z,4.85
2022-10-10T20:34:06.788Z,6.78
2022-10-10T20:36:53.561Z,5.00
2022-10-10T20:39:38.796Z,9.35
2022-10-10T20:42:24.256Z,9.52
2022-10-10T20:45:11.397Z,10.30
2022-10-10T20:47:57.028Z,7.15
2022-10-10T20:50:42.772Z,7.60
2022-10-10T20:53:28.230Z,8.02
2022-10-10T20:56:13.939Z,9.55
2022-10-10T20:59:00.429Z,5.93
2022-10-10T21:01:46.337Z,8.95
2022-10-10T21:04:31.834Z,7.07
2022-10-10T21:07:17.380Z,7.97
2022-10-10T21:10:03.201Z,8.25
2022-10-10T21:12:48.491Z,7.60
2022-10-10T21:15:33.926Z,7.70
2022-10-10T21:18:19.840Z,10.27
2022-10-10T21:21:06.002Z,8.60
2022-10-10T21:23:55.775Z,10.98
2022-10-10T21:26:42.637Z,6.88
2022-10-10T21:29:28.509Z,8.68
2022-10-10T21:32:13.513Z,7.68
2022-10-10T21:34:59.064Z,8.05
2022-10-10T21:37:45.424Z,8.73
2022-10-10T21:40:30.735Z,5.50
2022-10-10T21:43:16.873Z,9.82
2022-10-10T21:46:09.115Z,6.63
2022-10-10T21:48:55.351Z,7.35
2022-10-10T21:51:45.440Z,4.55
2022-10-10T21:54:30.748Z,6.47
2022-10-10T21:57:16.220Z,8.05
2022-10-10T22:00:01.883Z,9.90
2022-10-10T22:02:47.723Z,7.97
2022-10-10T22:05:34.600Z,7.20
2022-10-10T22:08:20.144Z,5.60
2022-10-10T22:11:11.369Z,5.07
2022-10-10T22:13:57.974Z,7.50
2022-10-10T22:16:43.312Z,4.65
2022-10-10T22:19:28.819Z,7.50
2022-10-10T22:22:14.217Z,10.98
2022-10-10T22:24:59.692Z,8.73
2022-10-10T22:27:45.285Z,6.80
2022-10-10T22:30:30.861Z,6.40
2022-10-10T22:33:16.051Z,5.95
2022-10-10T22:36:01.915Z,4.68
2022-10-10T22:38:47.555Z,5.50
2022-10-10T22:41:33.212Z,4.88
2022-10-10T22:44:18.596Z,7.35
2022-10-10T22:47:04.540Z,4.93
2022-10-10T22:49:49.700Z,3.72
2022-10-10T22:52:35.725Z,4.57
2022-10-10T22:55:21.140Z,5.97
2022-10-10T22:58:06.635Z,3.20
2022-10-10T23:00:52.700Z,4.32
2022-10-10T23:03:38.159Z,5.07
2022-10-10T23:06:23.690Z,3.95
2022-10-10T23:09:11.709Z,4.97
2022-10-10T23:11:57.207Z,5.30
2022-10-10T23:14:42.774Z,5.88
2022-10-10T23:17:28.110Z,4.80
2022-10-10T23:20:13.777Z,4.63
2022-10-10T23:22:59.310Z,8.05
2022-10-10T23:25:46.619Z,4.82
2022-10-10T23:28:31.919Z,3.90
2022-10-10T23:31:17.421Z,6.75
2022-10-10T23:34:02.476Z,5.60
2022-10-10T23:36:48.132Z,5.55
2022-10-10T23:39:33.537Z,4.32
2022-10-10T23:42:19.288Z,5.95
2022-10-10T23:45:04.885Z,4.15
2022-10-10T23:47:50.393Z,5.32
2022-10-10T23:50:35.917Z,4.95
2022-10-10T23:53:21.748Z,5.30
2022-10-10T23:56:08.068Z,5.05
2022-10-10T23:58:53.980Z,5.05
